Time;durP1;ratioP1;P1;durP2;ratioP2;P2;SDS_P1;SDS_P2;PMS_P1;PMS_P2;Temp;Humidity;BMP_temperature;BMP_pressure;BME280_temperature;BME280_humidity;BME280_pressure;Samples;Min_cycle;Max_cycle;Signal;HPM_P1;HPM_P2
2023/05/08 00:00:25;;;;;;;17.00;14.60;;;;;;;;;;5092690;27;20051;-66
2023/05/08 00:02:51;;;;;;;14.93;13.02;;;;;;;;;;5089025;27;20131;-66
2023/05/08 00:05:17;;;;;;;14.57;12.60;;;;;;;;;;5077863;28;20471;-66
2023/05/08 00:07:44;;;;;;;18.63;12.88;;;;;;;;;;5075601;28;20036;-66
2023/05/08 00:10:10;;;;;;;14.05;12.50;;;;;;;;;;5102733;28;20082;-66
2023/05/08 00:12:36;;;;;;;15.73;12.43;;;;;;;;;;5080496;28;20188;-65
2023/05/08 00:15:03;;;;;;;16.48;12.85;;;;;;;;;;5077051;28;20044;-66
2023/05/08 00:17:29;;;;;;;14.68;12.40;;;;;;;;;;5073378;28;20476;-66
2023/05/08 00:19:56;;;;;;;15.50;12.90;;;;;;;;;;5074148;27;20360;-66
2023/05/08 00:22:22;;;;;;;13.73;12.32;;;;;;;;;;5093794;27;20588;-66
2023/05/08 00:24:48;;;;;;;14.98;12.20;;;;;;;;;;5095412;27;20044;-65
2023/05/08 00:27:14;;;;;;;17.25;12.20;;;;;;;;;;5091201;27;20044;-66
2023/05/08 00:29:40;;;;;;;14.88;12.68;;;;;;;;;;5098490;28;20075;-66
2023/05/08 00:32:07;;;;;;;15.23;11.90;;;;;;;;;;5075296;28;20044;-66
2023/05/08 00:34:33;;;;;;;15.75;12.60;;;;;;;;;;5078822;28;20062;-66
2023/05/08 00:37:01;;;;;;;15.02;12.95;;;;;;;;;;5079111;28;20488;-66
2023/05/08 00:39:27;;;;;;;16.60;12.20;;;;;;;;;;5093442;27;20047;-66
2023/05/08 00:41:54;;;;;;;15.05;12.65;;;;;;;;;;5078115;28;21132;-66
2023/05/08 00:44:20;;;;;;;15.20;12.95;;;;;;;;;;5096504;27;20370;-65
2023/05/08 00:46:46;;;;;;;12.85;11.55;;;;;;;;;;5077773;28;20040;-66
2023/05/08 00:49:13;;;;;;;15.13;12.73;;;;;;;;;;5095209;27;20073;-66
2023/05/08 00:51:42;;;;;;;15.18;12.63;;;;;;;;;;5074598;28;20068;-66
2023/05/08 00:54:08;;;;;;;14.90;13.30;;;;;;;;;;5092343;27;20058;-66
2023/05/08 00:56:35;;;;;;;16.27;12.18;;;;;;;;;;5073287;28;20131;-66
2023/05/08 00:59:02;;;;;;;14.23;12.50;;;;;;;;;;5089514;27;20043;-66
2023/05/08 01:01:28;;;;;;;15.93;13.23;;;;;;;;;;5069736;28;20054;-66
2023/05/08 01:03:54;;;;;;;15.73;13.02;;;;;;;;;;5074049;28;20364;-65
2023/05/08 01:06:21;;;;;;;13.68;11.95;;;;;;;;;;5092983;27;20047;-66
2023/05/08 01:08:47;;;;;;;17.67;13.90;;;;;;;;;;5077575;28;20055;-66
2023/05/08 01:11:25;;;;;;;16.27;13.20;;;;;;;;;;5092837;28;20063;-66
2023/05/08 01:13:52;;;;;;;17.33;13.23;;;;;;;;;;5073685;28;20047;-65
2023/05/08 01:16:22;;;;;;;19.75;13.77;;;;;;;;;;5071971;28;20040;-66
2023/05/08 01:18:53;;;;;;;16.27;12.93;;;;;;;;;;5089514;27;20043;-66
2023/05/08 01:21:19;;;;;;;16.50;13.35;;;;;;;;;;5068231;27;20093;-66
2023/05/08 01:23:46;;;;;;;15.32;13.13;;;;;;;;;;5093394;28;20039;-66
2023/05/08 01:26:24;;;;;;;19.83;15.15;;;;;;;;;;5093283;28;20127;-66
2023/05/08 01:28:50;;;;;;;16.58;13.15;;;;;;;;;;5073746;27;20556;-67
2023/05/08 01:31:25;;;;;;;16.05;13.85;;;;;;;;;;5084486;27;20048;-65
2023/05/08 01:33:54;;;;;;;18.02;13.73;;;;;;;;;;5068202;28;20066;-66
2023/05/08 01:36:24;;;;;;;17.98;14.32;;;;;;;;;;5069842;28;20373;-66
2023/05/08 01:42:22;;;;;;;16.15;13.48;;;;;;;;;;5071651;28;20067;-66
2023/05/08 01:44:51;;;;;;;17.63;14.85;;;;;;;;;;5075158;28;20483;-65
2023/05/08 01:47:20;;;;;;;16.90;14.65;;;;;;;;;;5078927;28;20044;-66
2023/05/08 01:49:48;;;;;;;16.23;13.63;;;;;;;;;;5073802;28;20076;-66
2023/05/08 01:52:17;;;;;;;19.52;15.38;;;;;;;;;;5067318;28;20045;-65
2023/05/08 01:54:55;;;;;;;16.73;14.80;;;;;;;;;;5049567;28;20139;-66
2023/05/08 01:57:22;;;;;;;16.95;14.25;;;;;;;;;;5069360;28;20075;-66
2023/05/08 01:59:49;;;;;;;18.40;14.07;;;;;;;;;;5068063;28;20041;-66
2023/05/08 02:02:16;;;;;;;18.23;15.10;;;;;;;;;;5067711;28;20127;-66
2023/05/08 02:04:43;;;;;;;17.70;14.45;;;;;;;;;;5069096;28;20082;-65
2023/05/08 02:07:10;;;;;;;21.30;14.98;;;;;;;;;;5068802;28;20052;-65
2023/05/08 02:09:37;;;;;;;17.67;14.60;;;;;;;;;;5074720;28;20442;-65
2023/05/08 02:12:06;;;;;;;16.85;15.05;;;;;;;;;;5073963;28;20044;-66
2023/05/08 02:14:33;;;;;;;17.23;14.85;;;;;;;;;;5071092;28;20048;-65
2023/05/08 02:17:01;;;;;;;19.52;16.17;;;;;;;;;;5065724;28;20035;-66
2023/05/08 02:19:28;;;;;;;18.40;15.50;;;;;;;;;;5067352;28;20045;-66
2023/05/08 02:21:55;;;;;;;17.95;14.45;;;;;;;;;;5049095;28;20070;-65
2023/05/08 02:24:22;;;;;;;18.67;15.88;;;;;;;;;;5073298;28;20055;-66
2023/05/08 02:26:49;;;;;;;19.58;16.05;;;;;;;;;;5070800;28;20400;-66
2023/05/08 02:29:15;;;;;;;17.83;15.32;;;;;;;;;;5069376;28;20052;-66
2023/05/08 02:31:42;;;;;;;19.73;16.80;;;;;;;;;;5081286;27;20079;-66
2023/05/08 02:34:09;;;;;;;18.67;16.30;;;;;;;;;;5070523;28;20849;-66
2023/05/08 02:36:36;;;;;;;18.15;15.35;;;;;;;;;;5074330;28;20048;-66
2023/05/08 02:39:02;;;;;;;17.48;15.48;;;;;;;;;;5073503;28;20044;-65
2023/05/08 02:41:30;;;;;;;19.35;16.13;;;;;;;;;;5093852;27;20483;-66
2023/05/08 02:43:56;;;;;;;21.15;17.52;;;;;;;;;;5093705;28;20042;-66
2023/05/08 02:46:35;;;;;;;20.38;15.95;;;;;;;;;;5076272;28;20047;-66
2023/05/08 02:49:04;;;;;;;19.80;15.35;;;;;;;;;;5073537;28;20051;-65
2023/05/08 02:51:37;;;;;;;20.60;17.05;;;;;;;;;;5070544;28;20488;-66
2023/05/08 02:54:08;;;;;;;17.75;15.55;;;;;;;;;;5077610;28;20036;-66
2023/05/08 02:56:37;;;;;;;18.27;15.63;;;;;;;;;;5088805;28;20137;-66
2023/05/08 02:59:15;;;;;;;21.20;18.15;;;;;;;;;;5091983;28;20039;-66
2023/05/08 03:01:44;;;;;;;23.13;18.10;;;;;;;;;;5070462;28;20040;-65
2023/05/08 03:04:12;;;;;;;21.42;17.02;;;;;;;;;;5066238;28;20040;-66
2023/05/08 03:06:40;;;;;;;22.90;18.73;;;;;;;;;;5088857;28;21001;-66
2023/05/08 03:09:07;;;;;;;19.92;16.88;;;;;;;;;;5073483;28;20047;-66
2023/05/08 03:11:38;;;;;;;22.30;18.38;;;;;;;;;;5087735;28;20479;-66
2023/05/08 03:14:06;;;;;;;20.05;16.70;;;;;;;;;;5066697;28;20047;-66
2023/05/08 03:16:34;;;;;;;19.80;16.67;;;;;;;;;;5071500;28;20047;-66
2023/05/08 03:19:03;;;;;;;21.80;17.33;;;;;;;;;;5069235;28;20179;-65
2023/05/08 03:21:30;;;;;;;22.92;17.88;;;;;;;;;;5070120;28;20056;-66
2023/05/08 03:23:57;;;;;;;20.15;17.33;;;;;;;;;;5071185;28;20052;-66
2023/05/08 03:26:24;;;;;;;21.60;17.35;;;;;;;;;;5070104;28;20040;-65
2023/05/08 03:28:50;;;;;;;21.30;18.23;;;;;;;;;;5092243;28;20483;-66
2023/05/08 03:31:24;;;;;;;23.27;17.80;;;;;;;;;;5087003;28;20062;-66
2023/05/08 03:33:53;;;;;;;20.92;17.58;;;;;;;;;;5087411;28;20830;-66
2023/05/08 03:36:20;;;;;;;20.63;17.13;;;;;;;;;;5069354;28;20096;-65
2023/05/08 03:38:46;;;;;;;20.50;18.27;;;;;;;;;;5090926;28;20112;-66
2023/05/08 03:41:13;;;;;;;23.25;18.60;;;;;;;;;;5073130;28;20036;-66
2023/05/08 03:43:39;;;;;;;22.67;18.52;;;;;;;;;;5073209;28;20047;-66
2023/05/08 03:46:05;;;;;;;22.05;17.48;;;;;;;;;;5090693;28;20755;-65
2023/05/08 03:48:33;;;;;;;21.02;17.88;;;;;;;;;;5090915;28;20074;-66
2023/05/08 03:51:01;;;;;;;21.30;17.70;;;;;;;;;;5071254;28;20055;-66
2023/05/08 03:53:28;;;;;;;21.08;17.42;;;;;;;;;;5093584;28;20040;-65
2023/05/08 03:55:56;;;;;;;22.10;17.75;;;;;;;;;;5070851;28;20457;-65
2023/05/08 03:58:28;;;;;;;21.30;18.27;;;;;;;;;;5075068;28;20158;-65
2023/05/08 04:01:01;;;;;;;20.70;17.45;;;;;;;;;;5077125;28;20342;-65
2023/05/08 04:03:27;;;;;;;;;;;;;;;;;;5093848;27;20135;-65
2023/05/08 04:05:59;;;;;;;23.83;17.35;;;;;;;;;;5093547;27;19927;-66
2023/05/08 04:08:31;;;;;;;20.80;17.27;;;;;;;;;;5069903;28;20695;-66
2023/05/08 04:11:03;;;;;;;20.88;18.13;;;;;;;;;;5072148;27;20047;-66
2023/05/08 04:13:31;;;;;;;20.10;17.40;;;;;;;;;;5091419;27;20153;-66
2023/05/08 04:16:03;;;;;;;24.10;18.38;;;;;;;;;;5095918;27;20046;-66
2023/05/08 04:18:30;;;;;;;24.00;17.77;;;;;;;;;;5072662;28;20044;-66
2023/05/08 04:20:57;;;;;;;21.08;17.15;;;;;;;;;;5078119;28;20048;-66
2023/05/08 04:23:26;;;;;;;22.98;16.85;;;;;;;;;;5094401;27;20126;-66
2023/05/08 04:25:53;;;;;;;19.63;17.02;;;;;;;;;;5092278;27;20043;-65
2023/05/08 04:28:20;;;;;;;20.70;17.98;;;;;;;;;;5074514;27;20068;-66
2023/05/08 04:30:46;;;;;;;22.17;17.40;;;;;;;;;;5073013;28;21063;-66
2023/05/08 04:33:13;;;;;;;20.02;16.92;;;;;;;;;;5090527;27;20067;-66
2023/05/08 04:35:40;;;;;;;22.65;17.42;;;;;;;;;;5091934;27;20039;-66
2023/05/08 04:38:06;;;;;;;19.75;17.45;;;;;;;;;;5072639;27;20083;-65
2023/05/08 04:40:32;;;;;;;19.77;16.75;;;;;;;;;;5071700;28;20107;-66
2023/05/08 04:42:58;;;;;;;24.25;17.42;;;;;;;;;;5074685;28;20036;-66
2023/05/08 04:45:24;;;;;;;20.23;16.40;;;;;;;;;;5072157;28;20162;-65
2023/05/08 04:47:50;;;;;;;19.98;16.90;;;;;;;;;;5074937;27;20043;-65
2023/05/08 04:50:17;;;;;;;19.52;17.23;;;;;;;;;;5072189;27;20047;-66
2023/05/08 04:52:43;;;;;;;21.30;17.00;;;;;;;;;;5091933;27;20048;-64
2023/05/08 04:55:09;;;;;;;21.92;16.52;;;;;;;;;;5092527;27;20032;-64
2023/05/08 04:57:36;;;;;;;20.73;17.70;;;;;;;;;;5094334;27;20109;-63
2023/05/08 05:00:02;;;;;;;22.00;17.33;;;;;;;;;;5092089;27;20597;-66
2023/05/08 05:02:28;;;;;;;20.55;17.35;;;;;;;;;;5076363;28;20067;-65
2023/05/08 05:04:57;;;;;;;20.45;16.83;;;;;;;;;;5076749;27;20965;-66
2023/05/08 05:07:23;;;;;;;20.88;17.00;;;;;;;;;;5087923;27;21662;-65
2023/05/08 05:09:49;;;;;;;21.20;16.88;;;;;;;;;;5073158;28;20075;-66
2023/05/08 05:12:16;;;;;;;20.20;16.40;;;;;;;;;;5077505;28;20053;-67
2023/05/08 05:14:42;;;;;;;24.65;17.65;;;;;;;;;;5097520;28;20405;-66
2023/05/08 05:17:08;;;;;;;19.45;15.82;;;;;;;;;;5085425;28;20343;-66
2023/05/08 05:19:34;;;;;;;23.20;17.48;;;;;;;;;;5077517;28;20055;-67
2023/05/08 05:22:00;;;;;;;18.08;15.98;;;;;;;;;;5075809;28;20040;-66
2023/05/08 05:24:26;;;;;;;21.50;17.15;;;;;;;;;;5081229;28;20510;-67
2023/05/08 05:26:53;;;;;;;19.38;17.30;;;;;;;;;;5081813;28;20447;-66
2023/05/08 05:29:19;;;;;;;22.35;16.65;;;;;;;;;;5079950;28;20040;-66
2023/05/08 05:31:45;;;;;;;21.20;17.38;;;;;;;;;;5093819;28;20150;-66
2023/05/08 05:34:12;;;;;;;21.63;17.90;;;;;;;;;;5102513;28;20054;-66
2023/05/08 05:36:38;;;;;;;20.15;16.90;;;;;;;;;;5100433;28;20443;-65
2023/05/08 05:39:04;;;;;;;20.10;16.40;;;;;;;;;;5068913;28;20351;-66
2023/05/08 05:41:30;;;;;;;20.48;16.73;;;;;;;;;;5070930;28;20046;-65
2023/05/08 05:43:56;;;;;;;18.73;16.60;;;;;;;;;;5091526;27;20040;-65
2023/05/08 05:46:30;;;;;;;19.23;16.23;;;;;;;;;;5083797;27;20047;-65
2023/05/08 05:48:57;;;;;;;24.08;18.23;;;;;;;;;;5075422;28;20055;-66
2023/05/08 05:51:23;;;;;;;20.00;16.77;;;;;;;;;;5081246;28;20450;-66
2023/05/08 05:53:49;;;;;;;19.65;16.08;;;;;;;;;;5092280;27;20705;-66
2023/05/08 05:56:16;;;;;;;20.00;16.92;;;;;;;;;;5078528;28;20050;-66
2023/05/08 05:58:44;;;;;;;20.48;16.60;;;;;;;;;;5088394;28;20047;-66
2023/05/08 06:01:10;;;;;;;22.75;17.58;;;;;;;;;;5091962;27;20036;-66
2023/05/08 06:03:36;;;;;;;21.65;17.73;;;;;;;;;;5088024;28;20079;-66
2023/05/08 06:06:03;;;;;;;23.50;16.98;;;;;;;;;;5088123;28;20435;-66
2023/05/08 06:08:29;;;;;;;19.00;16.88;;;;;;;;;;5089631;27;20052;-66
2023/05/08 06:10:55;;;;;;;19.80;16.75;;;;;;;;;;5076967;28;20140;-66
2023/05/08 06:13:22;;;;;;;17.83;15.68;;;;;;;;;;5074393;28;20053;-66
2023/05/08 06:15:49;;;;;;;19.13;16.17;;;;;;;;;;5074523;28;20040;-66
2023/05/08 06:18:16;;;;;;;26.60;16.95;;;;;;;;;;5093898;27;20115;-65
2023/05/08 06:20:42;;;;;;;19.80;16.63;;;;;;;;;;5073125;28;20055;-65
2023/05/08 06:23:08;;;;;;;21.13;17.23;;;;;;;;;;5090270;28;20035;-65
2023/05/08 06:25:34;;;;;;;21.00;17.95;;;;;;;;;;5068913;28;20052;-65
2023/05/08 06:28:01;;;;;;;20.85;17.45;;;;;;;;;;5073533;28;20059;-65
2023/05/08 06:30:27;;;;;;;18.50;16.42;;;;;;;;;;5053767;28;20047;-65
2023/05/08 06:32:53;;;;;;;19.65;16.83;;;;;;;;;;5079083;28;20080;-65
2023/05/08 06:35:19;;;;;;;20.17;16.60;;;;;;;;;;5070229;28;20090;-66
2023/05/08 06:37:46;;;;;;;19.45;16.42;;;;;;;;;;5090992;28;20052;-66
2023/05/08 06:40:12;;;;;;;19.55;16.48;;;;;;;;;;5073626;28;20109;-67
2023/05/08 06:42:39;;;;;;;22.30;16.55;;;;;;;;;;5067595;28;20047;-66
2023/05/08 06:45:06;;;;;;;20.70;17.73;;;;;;;;;;5087782;27;20044;-66
2023/05/08 06:47:32;;;;;;;20.70;17.83;;;;;;;;;;5089081;28;20102;-66
2023/05/08 06:49:59;;;;;;;20.17;17.20;;;;;;;;;;5069991;28;20028;-65
2023/05/08 06:52:25;;;;;;;20.98;17.25;;;;;;;;;;5073405;28;20381;-66
2023/05/08 06:54:52;;;;;;;21.27;16.58;;;;;;;;;;5091824;28;20044;-66
2023/05/08 06:57:18;;;;;;;19.73;17.25;;;;;;;;;;5089706;28;20407;-66
2023/05/08 06:59:44;;;;;;;22.25;17.15;;;;;;;;;;5069715;28;20040;-65
2023/05/08 07:02:11;;;;;;;18.52;16.55;;;;;;;;;;5072310;28;20040;-65
2023/05/08 07:04:37;;;;;;;19.48;15.75;;;;;;;;;;5093534;28;20047;-65
2023/05/08 07:07:05;;;;;;;19.40;15.57;;;;;;;;;;5094033;28;20036;-66
2023/05/08 07:09:31;;;;;;;26.48;16.67;;;;;;;;;;5093346;28;20046;-66
2023/05/08 07:11:57;;;;;;;20.55;16.67;;;;;;;;;;5096292;28;20397;-65
2023/05/08 07:14:24;;;;;;;19.85;16.17;;;;;;;;;;5075796;28;20155;-66
2023/05/08 07:16:50;;;;;;;19.02;16.20;;;;;;;;;;5072425;28;20130;-66
2023/05/08 07:19:16;;;;;;;17.55;15.57;;;;;;;;;;5072766;28;20525;-66
2023/05/08 07:21:44;;;;;;;20.67;16.15;;;;;;;;;;5092076;28;20039;-66
2023/05/08 07:24:11;;;;;;;20.10;16.35;;;;;;;;;;5088202;28;21992;-67
2023/05/08 07:26:37;;;;;;;18.52;15.85;;;;;;;;;;5068943;28;20093;-66
2023/05/08 07:29:03;;;;;;;17.88;15.77;;;;;;;;;;5071432;28;20055;-66
2023/05/08 07:31:29;;;;;;;19.38;16.33;;;;;;;;;;5088762;28;20468;-66
2023/05/08 07:33:56;;;;;;;18.80;16.33;;;;;;;;;;5073579;28;20071;-66
2023/05/08 07:36:22;;;;;;;17.42;15.55;;;;;;;;;;5074182;28;20055;-66
2023/05/08 07:38:48;;;;;;;17.73;15.43;;;;;;;;;;5075222;27;20067;-66
2023/05/08 07:41:15;;;;;;;18.58;16.20;;;;;;;;;;5075041;28;20048;-65
2023/05/08 07:43:42;;;;;;;17.60;15.02;;;;;;;;;;5089820;28;20059;-66
2023/05/08 07:46:08;;;;;;;18.58;16.33;;;;;;;;;;5090709;28;20181;-66
2023/05/08 07:48:35;;;;;;;19.50;15.27;;;;;;;;;;5069497;28;20088;-66
2023/05/08 07:51:01;;;;;;;17.48;15.68;;;;;;;;;;5072768;27;20043;-66
2023/05/08 07:53:28;;;;;;;17.88;15.52;;;;;;;;;;5075463;28;20048;-67
2023/05/08 07:55:54;;;;;;;17.33;15.38;;;;;;;;;;5074219;28;20093;-66
2023/05/08 07:58:20;;;;;;;18.00;16.00;;;;;;;;;;5094546;28;20130;-66
2023/05/08 08:00:46;;;;;;;18.02;16.10;;;;;;;;;;5077004;28;20092;-66
2023/05/08 08:03:12;;;;;;;17.33;15.38;;;;;;;;;;5074776;28;20480;-66
2023/05/08 08:05:38;;;;;;;18.35;16.05;;;;;;;;;;5078346;27;20524;-66
2023/05/08 08:08:04;;;;;;;18.33;16.42;;;;;;;;;;5080071;28;20032;-66
2023/05/08 08:10:31;;;;;;;21.02;15.52;;;;;;;;;;5079515;28;20173;-65
2023/05/08 08:12:57;;;;;;;19.67;14.80;;;;;;;;;;5074669;27;20583;-65
2023/05/08 08:15:23;;;;;;;18.55;15.93;;;;;;;;;;5078032;28;20048;-65
2023/05/08 08:17:49;;;;;;;18.20;16.10;;;;;;;;;;5096097;28;20491;-66
2023/05/08 08:20:15;;;;;;;17.35;15.23;;;;;;;;;;5095494;27;20146;-66
2023/05/08 08:22:42;;;;;;;19.85;16.58;;;;;;;;;;5058994;28;20050;-66
2023/05/08 08:25:08;;;;;;;17.92;15.48;;;;;;;;;;5085097;28;20112;-66
2023/05/08 08:27:34;;;;;;;20.60;15.98;;;;;;;;;;5084158;28;20139;-67
2023/05/08 08:30:00;;;;;;;17.27;15.18;;;;;;;;;;5089528;28;20035;-65
2023/05/08 08:32:27;;;;;;;19.25;14.80;;;;;;;;;;5095864;27;20149;-66
2023/05/08 08:34:53;;;;;;;17.20;14.18;;;;;;;;;;5079217;28;20062;-66
2023/05/08 08:37:19;;;;;;;17.35;15.38;;;;;;;;;;5074265;28;20048;-66
2023/05/08 08:39:47;;;;;;;22.23;16.45;;;;;;;;;;5077726;28;20197;-66
2023/05/08 08:42:13;;;;;;;17.27;15.20;;;;;;;;;;5094667;28;20108;-69
2023/05/08 08:44:39;;;;;;;16.52;14.73;;;;;;;;;;5078987;28;20044;-65
2023/05/08 08:47:06;;;;;;;19.33;16.00;;;;;;;;;;5076520;28;20138;-66
2023/05/08 08:49:35;;;;;;;19.02;16.38;;;;;;;;;;5094541;27;20040;-65
2023/05/08 08:52:03;;;;;;;19.15;15.93;;;;;;;;;;5077053;28;20067;-65
2023/05/08 08:54:30;;;;;;;19.92;16.27;;;;;;;;;;5097432;28;20051;-65
2023/05/08 08:57:00;;;;;;;19.33;16.35;;;;;;;;;;5095812;28;21155;-65
2023/05/08 08:59:28;;;;;;;16.98;14.85;;;;;;;;;;5071940;28;20046;-65
2023/05/08 09:01:56;;;;;;;17.63;15.63;;;;;;;;;;5096507;28;20127;-65
2023/05/08 09:04:26;;;;;;;19.73;16.50;;;;;;;;;;5077659;28;20044;-65
2023/05/08 09:06:53;;;;;;;17.38;15.48;;;;;;;;;;5076314;28;20059;-65
2023/05/08 09:09:19;;;;;;;18.63;15.55;;;;;;;;;;5075559;28;20124;-65
2023/05/08 09:11:46;;;;;;;19.08;17.08;;;;;;;;;;5090550;28;20054;-65
2023/05/08 09:14:12;;;;;;;20.15;16.35;;;;;;;;;;5094268;27;20054;-65
2023/05/08 09:16:38;;;;;;;19.05;16.30;;;;;;;;;;5077714;28;20104;-65
2023/05/08 09:19:05;;;;;;;18.10;15.90;;;;;;;;;;5096516;28;20047;-66
2023/05/08 09:21:31;;;;;;;16.08;14.38;;;;;;;;;;5094673;28;20034;-65
2023/05/08 09:23:58;;;;;;;20.67;18.50;;;;;;;;;;5094652;27;20108;-66
2023/05/08 09:26:36;;;;;;;19.30;17.23;;;;;;;;;;5097383;28;20042;-65
2023/05/08 09:29:10;;;;;;;20.48;18.27;;;;;;;;;;5091455;28;20044;-65
2023/05/08 09:31:38;;;;;;;21.88;18.58;;;;;;;;;;5073106;27;20072;-65
2023/05/08 09:34:06;;;;;;;19.48;17.35;;;;;;;;;;5074418;28;20562;-65
2023/05/08 09:36:33;;;;;;;21.92;19.48;;;;;;;;;;5090689;28;20129;-66
2023/05/08 09:39:00;;;;;;;20.42;18.27;;;;;;;;;;5092800;27;20047;-65
2023/05/08 09:41:26;;;;;;;20.88;18.52;;;;;;;;;;5091410;28;20054;-66
2023/05/08 09:44:05;;;;;;;22.38;19.98;;;;;;;;;;5092728;27;20051;-66
2023/05/08 09:46:33;;;;;;;20.20;18.10;;;;;;;;;;5088700;27;20040;-66
2023/05/08 09:49:01;;;;;;;20.25;17.95;;;;;;;;;;5069837;28;20040;-66
2023/05/08 09:51:28;;;;;;;21.67;19.38;;;;;;;;;;5072099;28;20486;-66
2023/05/08 09:53:56;;;;;;;22.65;19.02;;;;;;;;;;5072083;28;20133;-66
2023/05/08 09:56:31;;;;;;;22.83;18.98;;;;;;;;;;5094914;28;20040;-65
2023/05/08 09:58:57;;;;;;;22.00;19.08;;;;;;;;;;5074250;27;20052;-65
2023/05/08 10:01:32;;;;;;;20.08;17.92;;;;;;;;;;5096744;28;20093;-65
2023/05/08 10:03:58;;;;;;;22.33;19.13;;;;;;;;;;5073529;28;20145;-65
2023/05/08 10:06:24;;;;;;;20.45;18.35;;;;;;;;;;5078084;28;20087;-65
2023/05/08 10:09:13;;;;;;;20.98;18.77;;;;;;;;;;5095975;28;20036;-66
2023/05/08 10:11:40;;;;;;;19.27;17.27;;;;;;;;;;5090194;27;20055;-65
2023/05/08 10:14:06;;;;;;;19.95;17.80;;;;;;;;;;5072822;28;20036;-64
2023/05/08 10:16:41;;;;;;;20.33;18.23;;;;;;;;;;5094736;27;20087;-65
2023/05/08 10:19:11;;;;;;;21.55;17.98;;;;;;;;;;5070357;27;20147;-65
2023/05/08 10:21:41;;;;;;;19.70;17.67;;;;;;;;;;5071686;28;20149;-65
2023/05/08 10:24:12;;;;;;;20.45;18.25;;;;;;;;;;5090878;28;20842;-65
2023/05/08 10:26:41;;;;;;;20.30;17.33;;;;;;;;;;5089402;27;20516;-65
2023/05/08 10:29:11;;;;;;;19.23;17.33;;;;;;;;;;5091250;27;20089;-65
2023/05/08 10:31:42;;;;;;;20.15;18.05;;;;;;;;;;5070489;28;20052;-65
2023/05/08 10:34:12;;;;;;;20.40;18.35;;;;;;;;;;5071245;28;20059;-65
2023/05/08 10:36:39;;;;;;;19.00;17.10;;;;;;;;;;5088267;28;20068;-65
2023/05/08 10:39:06;;;;;;;20.25;16.98;;;;;;;;;;5069524;28;20051;-66
2023/05/08 10:41:32;;;;;;;18.17;16.48;;;;;;;;;;5088619;27;20040;-65
2023/05/08 10:43:59;;;;;;;19.55;17.45;;;;;;;;;;5087097;28;20121;-66
2023/05/08 10:46:28;;;;;;;20.15;18.15;;;;;;;;;;5095715;28;20038;-66
2023/05/08 10:48:59;;;;;;;20.02;17.90;;;;;;;;;;5079174;28;20238;-65
2023/05/08 10:51:32;;;;;;;18.85;17.00;;;;;;;;;;5074596;28;20061;-65
2023/05/08 10:54:01;;;;;;;19.00;17.02;;;;;;;;;;5074240;28;20055;-66
2023/05/08 10:56:28;;;;;;;18.98;17.13;;;;;;;;;;5069941;28;20044;-66
2023/05/08 10:58:56;;;;;;;17.27;15.57;;;;;;;;;;5074940;28;20051;-66
2023/05/08 11:01:22;;;;;;;19.67;17.77;;;;;;;;;;5090868;28;20112;-65
2023/05/08 11:03:49;;;;;;;19.58;17.58;;;;;;;;;;5070767;28;20068;-65
2023/05/08 11:06:16;;;;;;;18.27;16.35;;;;;;;;;;5073141;28;20565;-66
2023/05/08 11:08:45;;;;;;;18.95;17.02;;;;;;;;;;5092059;28;20165;-65
2023/05/08 11:11:16;;;;;;;18.15;16.40;;;;;;;;;;5089737;28;20131;-66
2023/05/08 11:13:43;;;;;;;18.95;17.05;;;;;;;;;;5087721;28;20040;-65
2023/05/08 11:16:09;;;;;;;18.25;16.27;;;;;;;;;;5071983;28;20051;-65
2023/05/08 11:18:36;;;;;;;18.15;16.25;;;;;;;;;;5085902;28;20150;-66
2023/05/08 11:21:04;;;;;;;18.10;16.25;;;;;;;;;;5088520;28;20092;-65
2023/05/08 11:23:32;;;;;;;18.17;16.38;;;;;;;;;;5058232;28;20174;-65
2023/05/08 11:26:02;;;;;;;18.88;16.98;;;;;;;;;;5075428;28;20047;-65
2023/05/08 11:28:33;;;;;;;18.02;16.23;;;;;;;;;;5076012;28;20459;-66
2023/05/08 11:31:06;;;;;;;19.08;17.13;;;;;;;;;;5088531;28;20055;-66
2023/05/08 11:33:33;;;;;;;19.48;17.48;;;;;;;;;;5069592;28;20105;-65
2023/05/08 11:36:08;;;;;;;18.67;16.70;;;;;;;;;;5089983;28;20079;-66
2023/05/08 11:38:35;;;;;;;18.52;16.45;;;;;;;;;;5088826;28;20055;-66
2023/05/08 11:41:09;;;;;;;17.92;15.52;;;;;;;;;;5053262;28;20047;-66
2023/05/08 11:43:35;;;;;;;17.10;15.15;;;;;;;;;;5088138;28;20044;-65
2023/05/08 11:46:07;;;;;;;17.85;15.98;;;;;;;;;;5069019;28;20051;-66
2023/05/08 11:48:34;;;;;;;17.90;16.00;;;;;;;;;;5071698;28;20079;-66
2023/05/08 11:51:00;;;;;;;20.88;17.83;;;;;;;;;;5069263;28;20145;-66
2023/05/08 11:53:27;;;;;;;18.48;16.35;;;;;;;;;;5090209;28;20513;-65
2023/05/08 11:55:53;;;;;;;19.10;16.85;;;;;;;;;;5077181;28;20082;-66
2023/05/08 11:58:20;;;;;;;19.55;17.58;;;;;;;;;;5076822;28;21480;-64
2023/05/08 12:00:47;;;;;;;17.55;15.70;;;;;;;;;;5091895;28;20407;-64
2023/05/08 12:03:16;;;;;;;20.50;18.33;;;;;;;;;;5076030;28;20077;-64
2023/05/08 12:05:42;;;;;;;20.35;18.30;;;;;;;;;;5073009;28;20380;-64
2023/05/08 12:08:09;;;;;;;20.17;18.08;;;;;;;;;;5074707;28;20755;-64
2023/05/08 12:10:40;;;;;;;21.27;19.08;;;;;;;;;;5069052;28;20047;-63
2023/05/08 12:13:15;;;;;;;21.75;19.55;;;;;;;;;;5088247;28;20421;-64
2023/05/08 12:15:42;;;;;;;21.10;18.90;;;;;;;;;;5069568;28;20082;-64
2023/05/08 12:18:08;;;;;;;22.25;19.55;;;;;;;;;;5071859;28;20551;-64
2023/05/08 12:20:34;;;;;;;21.17;19.02;;;;;;;;;;5073790;28;20067;-63
2023/05/08 12:23:02;;;;;;;23.88;20.98;;;;;;;;;;5089781;28;20043;-63
2023/05/08 12:25:28;;;;;;;22.25;19.92;;;;;;;;;;5074223;28;20044;-63
2023/05/08 12:27:54;;;;;;;22.05;19.52;;;;;;;;;;5097401;27;20039;-63
2023/05/08 12:30:20;;;;;;;23.20;20.77;;;;;;;;;;5077998;27;20124;-64
2023/05/08 12:32:47;;;;;;;23.13;20.67;;;;;;;;;;5094621;28;20146;-63
2023/05/08 12:35:14;;;;;;;22.70;20.38;;;;;;;;;;5059933;28;20125;-63
2023/05/08 12:37:40;;;;;;;23.60;21.08;;;;;;;;;;5082057;28;21689;-63
2023/05/08 12:40:07;;;;;;;23.65;21.17;;;;;;;;;;5092764;28;20040;-63
2023/05/08 12:42:41;;;;;;;22.92;20.73;;;;;;;;;;5072725;27;20052;-63
2023/05/08 12:45:07;;;;;;;24.27;21.77;;;;;;;;;;5093465;27;20093;-66
2023/05/08 12:47:34;;;;;;;24.52;21.95;;;;;;;;;;5090515;28;20036;-64
2023/05/08 12:50:00;;;;;;;25.08;21.75;;;;;;;;;;5092770;28;20047;-66
2023/05/08 12:52:27;;;;;;;24.45;21.90;;;;;;;;;;5089601;27;20437;-65
2023/05/08 12:54:53;;;;;;;23.27;20.80;;;;;;;;;;5091080;27;20044;-65
2023/05/08 12:57:21;;;;;;;25.50;20.92;;;;;;;;;;5094576;27;20036;-65
2023/05/08 12:59:47;;;;;;;24.95;22.13;;;;;;;;;;5092956;27;20054;-65
2023/05/08 13:02:15;;;;;;;26.02;23.02;;;;;;;;;;5070100;28;20036;-66
2023/05/08 13:04:41;;;;;;;23.42;20.98;;;;;;;;;;5074174;28;20076;-65
2023/05/08 13:07:07;;;;;;;25.70;21.50;;;;;;;;;;5093214;27;20170;-66
2023/05/08 13:09:34;;;;;;;26.48;22.42;;;;;;;;;;5070904;28;20048;-66
2023/05/08 13:12:00;;;;;;;23.38;20.98;;;;;;;;;;5093762;27;20488;-66
2023/05/08 13:14:26;;;;;;;23.00;20.65;;;;;;;;;;5092205;28;20081;-66
2023/05/08 13:16:52;;;;;;;25.10;22.45;;;;;;;;;;5081365;28;20040;-65
2023/05/08 13:19:18;;;;;;;25.17;21.75;;;;;;;;;;5081779;28;20217;-65
2023/05/08 13:21:46;;;;;;;24.10;21.67;;;;;;;;;;5083201;28;20399;-65
2023/05/08 13:24:14;;;;;;;22.92;20.60;;;;;;;;;;5099167;27;20126;-65
2023/05/08 13:26:40;;;;;;;22.05;19.58;;;;;;;;;;5096404;27;20048;-65
2023/05/08 13:29:06;;;;;;;25.13;22.52;;;;;;;;;;5092588;27;20565;-65
2023/05/08 13:31:32;;;;;;;24.15;21.42;;;;;;;;;;5092091;28;20051;-66
2023/05/08 13:33:58;;;;;;;23.73;20.92;;;;;;;;;;5075167;27;20055;-66
2023/05/08 13:36:26;;;;;;;21.20;19.10;;;;;;;;;;5064745;28;20036;-66
2023/05/08 13:38:53;;;;;;;23.13;20.73;;;;;;;;;;5090729;27;20032;-66
2023/05/08 13:41:20;;;;;;;25.30;22.63;;;;;;;;;;5071350;28;20048;-66
2023/05/08 13:43:46;;;;;;;22.15;19.92;;;;;;;;;;5073662;28;20055;-66
2023/05/08 13:46:13;;;;;;;24.50;21.77;;;;;;;;;;5070728;28;20138;-66
2023/05/08 13:48:39;;;;;;;25.98;23.33;;;;;;;;;;5071795;27;20040;-66
2023/05/08 13:51:05;;;;;;;27.65;23.08;;;;;;;;;;5097061;27;20036;-66
2023/05/08 13:53:31;;;;;;;27.38;23.55;;;;;;;;;;5096181;27;20040;-66
2023/05/08 13:55:57;;;;;;;26.00;23.42;;;;;;;;;;5095447;27;20044;-66
2023/05/08 13:58:24;;;;;;;26.85;23.92;;;;;;;;;;5096380;27;20116;-66
2023/05/08 14:00:50;;;;;;;25.88;23.13;;;;;;;;;;5091565;27;20054;-66
2023/05/08 14:03:16;;;;;;;27.27;24.58;;;;;;;;;;5073603;28;20059;-65
2023/05/08 14:05:42;;;;;;;28.55;25.55;;;;;;;;;;5077749;28;20047;-65
2023/05/08 14:08:10;;;;;;;31.70;26.77;;;;;;;;;;5077131;27;20056;-66
2023/05/08 14:10:36;;;;;;;28.17;25.27;;;;;;;;;;5076347;27;20443;-65
2023/05/08 14:13:02;;;;;;;30.88;27.67;;;;;;;;;;5074270;28;20039;-65
2023/05/08 14:15:28;;;;;;;32.88;25.33;;;;;;;;;;5074845;28;20104;-65
2023/05/08 14:17:54;;;;;;;33.67;29.95;;;;;;;;;;5094978;27;20048;-65
2023/05/08 14:20:21;;;;;;;34.95;31.35;;;;;;;;;;5075596;28;20079;-65
2023/05/08 14:22:47;;;;;;;33.70;30.05;;;;;;;;;;5079921;28;20082;-65